Time;durP1;ratioP1;P1;durP2;ratioP2;P2;SDS_P1;SDS_P2;PMS_P1;PMS_P2;Temp;Humidity;BMP_temperature;BMP_pressure;BME280_temperature;BME280_humidity;BME280_pressure;Samples;Min_cycle;Max_cycle;Signal;HPM_P1;HPM_P2
2023/03/03 00:01:31;;;;;;;6.55;3.22;;;1.20;99.90;;;;;;5057868;28;20043;-87
2023/03/03 00:03:58;;;;;;;8.00;3.83;;;1.20;99.90;;;;;;5092449;28;20055;-88
2023/03/03 00:06:25;;;;;;;7.28;3.80;;;2.20;99.90;;;;;;5091934;28;20051;-89
2023/03/03 00:08:51;;;;;;;9.02;4.15;;;1.50;99.90;;;;;;5074097;28;20075;-88
2023/03/03 00:11:17;;;;;;;8.30;3.72;;;1.10;99.90;;;;;;5092370;28;20090;-89
2023/03/03 00:13:55;;;;;;;6.65;3.35;;;0.70;99.90;;;;;;5092365;28;20036;-88
2023/03/03 00:16:36;;;;;;;8.68;4.22;;;1.10;99.90;;;;;;5095529;28;20043;-89
2023/03/03 00:19:02;;;;;;;7.53;3.65;;;1.00;99.90;;;;;;5073946;28;20110;-89
2023/03/03 00:21:31;;;;;;;9.32;4.38;;;0.90;99.90;;;;;;5095974;28;20433;-88
2023/03/03 00:24:22;;;;;;;7.53;3.85;;;0.90;99.90;;;;;;5109133;28;20468;-88
2023/03/03 00:26:56;;;;;;;7.38;3.97;;;1.70;99.90;;;;;;5117072;28;20115;-89
2023/03/03 00:29:52;;;;;;;9.25;4.10;;;1.50;99.90;;;;;;5109553;28;20048;-88
2023/03/03 00:32:42;;;;;;;8.90;4.25;;;0.80;99.90;;;;;;5096244;28;20477;-88
2023/03/03 00:35:34;;;;;;;9.50;3.80;;;0.90;99.90;;;;;;5112357;28;20054;-87
2023/03/03 00:38:09;;;;;;;7.70;3.55;;;0.80;99.90;;;;;;5101575;27;20073;-88
2023/03/03 00:40:39;;;;;;;7.80;4.03;;;0.70;99.90;;;;;;5119020;27;20056;-88
2023/03/03 00:43:29;;;;;;;7.10;3.85;;;0.70;99.90;;;;;;5137151;27;20178;-88
2023/03/03 00:46:08;;;;;;;7.18;4.03;;;0.00;99.90;;;;;;5137289;27;20043;-88
2023/03/03 00:48:37;;;;;;;8.23;4.18;;;0.60;99.90;;;;;;5115477;28;20035;-88
2023/03/03 00:51:29;;;;;;;6.55;3.33;;;0.50;99.90;;;;;;5116770;28;20078;-88
2023/03/03 00:54:07;;;;;;;8.38;4.13;;;0.60;99.90;;;;;;5098732;27;20480;-87
2023/03/03 00:56:38;;;;;;;8.18;3.95;;;0.60;99.90;;;;;;5136234;27;20039;-88
2023/03/03 00:59:06;;;;;;;6.97;3.42;;;0.50;99.90;;;;;;5135833;27;20409;-88
2023/03/03 01:01:32;;;;;;;7.60;3.33;;;0.60;99.90;;;;;;5100529;27;20071;-87
2023/03/03 01:04:01;;;;;;;5.63;2.97;;;0.50;99.90;;;;;;5118886;27;20050;-87
2023/03/03 01:06:30;;;;;;;6.20;3.38;;;0.60;99.90;;;;;;5136171;27;20505;-88
2023/03/03 01:08:58;;;;;;;7.00;3.40;;;0.40;99.90;;;;;;5118299;27;20112;-87
2023/03/03 01:11:30;;;;;;;7.45;3.70;;;0.40;99.90;;;;;;5136226;27;20407;-87
2023/03/03 01:14:28;;;;;;;7.18;3.38;;;0.40;99.90;;;;;;5136416;27;20553;-87
2023/03/03 01:17:00;;;;;;;7.97;4.00;;;0.40;99.90;;;;;;5109844;28;20469;-88
2023/03/03 01:19:33;;;;;;;8.10;3.88;;;1.20;99.90;;;;;;5115377;28;20042;-88
2023/03/03 01:22:05;;;;;;;9.80;3.95;;;0.20;99.90;;;;;;5096920;28;20110;-88
2023/03/03 01:24:31;;;;;;;8.45;3.72;;;0.30;99.90;;;;;;5110245;27;20043;-88
2023/03/03 01:27:11;;;;;;;7.47;3.53;;;0.30;99.90;;;;;;5118039;27;20027;-87
2023/03/03 01:29:42;;;;;;;7.38;3.80;;;1.10;99.90;;;;;;5117590;27;20035;-85
2023/03/03 01:32:22;;;;;;;7.93;3.55;;;0.20;99.90;;;;;;5135794;27;20103;-87
2023/03/03 01:34:51;;;;;;;7.63;3.88;;;0.10;99.90;;;;;;5135013;27;20101;-87
2023/03/03 01:37:25;;;;;;;5.20;2.55;;;0.00;99.90;;;;;;5117200;27;20096;-87
2023/03/03 01:39:57;;;;;;;7.57;3.60;;;0.00;99.90;;;;;;5135590;27;20454;-87
2023/03/03 01:42:34;;;;;;;7.90;3.53;;;0.00;99.90;;;;;;5116386;27;20130;-89
2023/03/03 01:45:41;;;;;;;6.22;3.17;;;-0.70;99.90;;;;;;5117316;27;20256;-87
2023/03/03 01:48:17;;;;;;;8.55;3.72;;;-0.20;99.90;;;;;;5133645;27;20086;-87
2023/03/03 01:51:22;;;;;;;9.02;4.30;;;-0.20;99.90;;;;;;5086360;27;20047;-88
2023/03/03 01:54:05;;;;;;;6.05;3.20;;;0.20;99.90;;;;;;5116779;27;20051;-88
2023/03/03 01:56:38;;;;;;;9.02;3.65;;;-0.20;99.90;;;;;;5115438;27;20067;-87
2023/03/03 01:59:32;;;;;;;7.60;3.70;;;-0.20;99.90;;;;;;5115703;27;20036;-88
2023/03/03 02:02:15;;;;;;;7.07;3.47;;;-0.20;99.90;;;;;;5116909;27;20099;-88
2023/03/03 02:04:48;;;;;;;5.20;2.75;;;-0.30;99.90;;;;;;5116110;27;20057;-88
2023/03/03 02:07:20;;;;;;;4.72;2.60;;;-0.40;99.90;;;;;;5135094;27;20051;-88
2023/03/03 02:10:04;;;;;;;5.68;3.15;;;-0.20;99.90;;;;;;5133144;27;20043;-88
2023/03/03 02:12:59;;;;;;;6.47;3.33;;;-0.40;99.90;;;;;;5134759;27;20043;-88
2023/03/03 02:15:43;;;;;;;6.50;3.08;;;-0.40;99.90;;;;;;5134755;27;20120;-87
2023/03/03 02:21:38;;;;;;;6.63;3.47;;;-1.40;99.90;;;;;;5053967;28;20158;-88
2023/03/03 02:24:32;;;;;;;5.65;2.88;;;-0.60;99.90;;;;;;5054001;28;20044;-88
2023/03/03 02:27:29;;;;;;;;;;;;;;;;;;;;;
2023/03/03 02:30:09;;;;;;;7.20;3.15;;;-0.60;99.90;;;;;;5029171;28;20060;-86
2023/03/03 02:32:36;;;;;;;6.18;3.42;;;-0.60;99.90;;;;;;5014351;28;20049;-87
2023/03/03 02:35:35;;;;;;;6.95;3.53;;;0.20;99.90;;;;;;5014274;28;20055;-87
2023/03/03 02:38:33;;;;;;;5.40;2.85;;;-0.70;99.90;;;;;;5013831;28;20180;-88
2023/03/03 02:42:12;;;;;;;6.40;3.35;;;-0.70;99.90;;;;;;5014295;28;20053;-88
2023/03/03 02:44:50;;;;;;;5.40;3.13;;;-0.70;99.90;;;;;;4963367;28;20050;-88
2023/03/03 02:50:26;;;;;;;;;;;;;;;;;;;;;
2023/03/03 02:52:52;;;;;;;5.78;3.25;;;0.20;99.90;;;;;;4954975;28;20063;-87
2023/03/03 02:55:34;;;;;;;5.15;3.03;;;-0.60;99.90;;;;;;4972151;28;20077;-87
2023/03/03 02:58:05;;;;;;;5.95;3.15;;;-0.10;99.90;;;;;;4952602;28;20519;-88
2023/03/03 03:00:51;;;;;;;6.50;3.28;;;-1.20;99.90;;;;;;4965635;28;20072;-87
2023/03/03 03:03:23;;;;;;;6.10;2.83;;;0.50;99.90;;;;;;4968991;28;20050;-88
2023/03/03 03:05:49;;;;;;;5.45;2.55;;;-0.90;99.90;;;;;;4978815;28;20041;-89
2023/03/03 03:08:21;;;;;;;6.35;2.70;;;-0.90;99.90;;;;;;4994335;28;20120;-89
2023/03/03 03:10:57;;;;;;;;;;;;;;;;;;;;;
2023/03/03 03:13:32;;;;;;;4.45;2.50;;;-0.50;99.90;;;;;;4977618;28;20060;-88
2023/03/03 03:16:03;;;;;;;9.50;2.67;;;-0.80;99.90;;;;;;5010685;28;20145;-88
2023/03/03 03:18:36;;;;;;;6.30;3.08;;;-0.40;99.90;;;;;;4994616;28;20049;-90
2023/03/03 03:21:32;;;;;;;4.63;2.70;;;-1.00;99.90;;;;;;5036621;28;20056;-88
2023/03/03 03:27:48;;;;;;;4.55;2.58;;;-0.50;99.90;;;;;;5082142;28;20097;-90
2023/03/03 03:30:30;;;;;;;;;;;;;;;;;;;;;
2023/03/03 03:33:09;;;;;;;5.70;3.00;;;-1.10;99.90;;;;;;5130808;28;20092;-90
2023/03/03 03:35:48;;;;;;;5.93;3.35;;;-1.00;99.90;;;;;;5115525;28;20039;-89
2023/03/03 03:38:35;;;;;;;5.82;3.03;;;-1.00;99.90;;;;;;5115023;28;20058;-90
2023/03/03 03:41:19;;;;;;;6.25;3.28;;;-1.00;99.90;;;;;;5133547;28;20108;-90
2023/03/03 03:43:57;;;;;;;6.35;3.53;;;-1.10;99.90;;;;;;5131847;28;20055;-89
2023/03/03 03:46:31;;;;;;;4.00;2.20;;;-1.10;99.90;;;;;;5090127;28;20117;-89
2023/03/03 03:49:05;;;;;;;5.00;2.05;;;-1.20;99.90;;;;;;5093466;28;20059;-89
2023/03/03 03:51:53;;;;;;;;;;;-1.10;99.90;;;;;;5095200;28;20047;-89
2023/03/03 03:54:41;;;;;;;6.28;2.60;;;-0.50;99.90;;;;;;5078144;28;19920;-89
2023/03/03 03:57:10;;;;;;;4.35;2.40;;;-1.10;99.90;;;;;;5091776;28;20504;-89
2023/03/03 03:59:39;;;;;;;5.20;2.40;;;-1.20;99.90;;;;;;5093543;28;20048;-89
2023/03/03 04:02:08;;;;;;;5.32;2.60;;;-1.30;99.90;;;;;;5091622;28;20059;-90
2023/03/03 04:04:42;;;;;;;3.72;2.33;;;-1.20;99.90;;;;;;5077099;28;20112;-88
2023/03/03 04:11:33;;;;;;;4.60;2.70;;;-1.30;99.90;;;;;;5094383;28;20043;-89
2023/03/03 04:14:10;;;;;;;5.88;2.53;;;-1.20;99.90;;;;;;5094954;28;20044;-87
2023/03/03 04:16:59;;;;;;;6.15;2.92;;;0.20;99.90;;;;;;5082135;27;20059;-90
2023/03/03 04:19:25;;;;;;;5.45;2.30;;;-1.70;99.90;;;;;;5136980;27;20066;-89
2023/03/03 04:22:11;;;;;;;5.30;2.80;;;-1.30;99.90;;;;;;5115317;28;20051;-90
2023/03/03 04:24:46;;;;;;;5.10;2.38;;;-1.20;99.90;;;;;;5117472;28;20075;-90
2023/03/03 04:27:20;;;;;;;5.70;2.70;;;-1.30;99.90;;;;;;5082725;28;20040;-90
2023/03/03 04:29:54;;;;;;;4.47;2.45;;;-1.90;99.90;;;;;;5116717;27;20047;-88
2023/03/03 04:32:26;;;;;;;6.28;2.75;;;-0.50;99.90;;;;;;5117770;27;20054;-88
2023/03/03 04:35:02;;;;;;;5.72;2.53;;;-1.60;99.90;;;;;;5117877;27;20050;-88
2023/03/03 04:44:56;;;;;;;4.63;2.55;;;-1.40;99.90;;;;;;5116659;28;20165;-89
2023/03/03 04:47:22;;;;;;;4.40;1.90;;;-1.40;99.90;;;;;;5116308;28;20042;-88
2023/03/03 04:49:50;;;;;;;4.57;2.05;;;-0.30;99.90;;;;;;5107726;27;20043;-87
2023/03/03 04:52:19;;;;;;;3.90;1.67;;;-0.60;99.90;;;;;;5137447;27;20039;-88
2023/03/03 04:54:45;;;;;;;6.05;2.70;;;-0.20;99.90;;;;;;5136322;27;20051;-87
2023/03/03 04:57:14;;;;;;;4.90;2.08;;;-0.90;99.90;;;;;;5136722;27;20491;-87
2023/03/03 04:59:48;;;;;;;4.20;1.80;;;-1.00;99.90;;;;;;5135864;27;20077;-87
2023/03/03 05:02:17;;;;;;;4.32;2.10;;;-1.50;99.90;;;;;;5098108;28;20048;-88
2023/03/03 05:04:43;;;;;;;4.32;2.00;;;-1.40;99.90;;;;;;5125934;27;20047;-88
2023/03/03 05:07:16;;;;;;;4.38;2.20;;;-1.40;99.90;;;;;;5102294;27;20047;-88
2023/03/03 05:09:53;;;;;;;8.73;3.20;;;-1.50;99.90;;;;;;5100454;27;20542;-86
2023/03/03 05:12:22;;;;;;;4.65;2.33;;;-1.50;99.90;;;;;;5135728;27;20482;-89
2023/03/03 05:14:50;;;;;;;5.28;2.10;;;-0.50;99.90;;;;;;5117999;27;20046;-88
2023/03/03 05:17:19;;;;;;;4.57;1.73;;;-1.30;99.90;;;;;;5101190;27;20041;-89
2023/03/03 05:19:50;;;;;;;4.60;2.22;;;-1.40;99.90;;;;;;5116969;27;20051;-89
2023/03/03 05:22:28;;;;;;;4.95;2.10;;;-0.80;99.90;;;;;;5135767;27;20051;-88
2023/03/03 05:25:03;;;;;;;4.25;1.88;;;-0.50;99.90;;;;;;5125883;27;20118;-88
2023/03/03 05:27:31;;;;;;;4.80;2.33;;;-1.80;99.90;;;;;;5125181;27;20126;-88
2023/03/03 05:29:59;;;;;;;3.97;1.88;;;-1.60;99.90;;;;;;5135992;27;20466;-87
2023/03/03 05:32:43;;;;;;;;;;;;;;;;;;;;;
2023/03/03 05:35:25;;;;;;;4.63;2.28;;;-2.20;99.90;;;;;;5086444;28;20514;-88
2023/03/03 05:38:00;;;;;;;3.72;1.63;;;-1.60;99.90;;;;;;5040338;28;20090;-88
2023/03/03 05:40:28;;;;;;;3.45;1.92;;;-0.30;99.90;;;;;;5074616;28;20463;-89
2023/03/03 05:42:59;;;;;;;4.07;2.13;;;-1.00;99.90;;;;;;5083528;28;20133;-88
2023/03/03 05:45:55;;;;;;;;;;;;;;;;;;;;;
2023/03/03 05:48:24;;;;;;;4.15;2.20;;;-1.60;99.90;;;;;;5075610;28;20052;-87
2023/03/03 05:50:58;;;;;;;4.97;2.15;;;-1.60;99.90;;;;;;5078076;28;20055;-88
2023/03/03 05:53:24;;;;;;;4.78;2.42;;;-2.00;99.90;;;;;;5091600;28;20040;-86
2023/03/03 05:55:59;;;;;;;4.90;1.88;;;-1.40;99.90;;;;;;5057337;28;20640;-88
2023/03/03 05:58:33;;;;;;;4.63;1.70;;;-0.90;99.90;;;;;;5091885;28;20060;-87
2023/03/03 06:01:14;;;;;;;4.35;2.05;;;-1.60;99.90;;;;;;5091344;28;20052;-87
2023/03/03 06:03:43;;;;;;;5.38;2.45;;;-1.60;99.90;;;;;;5090294;28;20044;-86
2023/03/03 06:06:29;;;;;;;3.55;2.03;;;-1.70;99.90;;;;;;5105979;27;20062;-88
2023/03/03 06:09:03;;;;;;;6.07;2.22;;;-2.20;99.90;;;;;;5118942;27;20039;-86
2023/03/03 06:11:41;;;;;;;4.60;2.53;;;-0.90;99.90;;;;;;5132939;27;20051;-88
2023/03/03 06:14:19;;;;;;;3.90;2.00;;;-1.70;99.90;;;;;;5100784;27;20046;-88
2023/03/03 06:16:49;;;;;;;5.47;2.33;;;-1.60;99.90;;;;;;5131560;27;20047;-88
2023/03/03 06:19:15;;;;;;;5.13;2.53;;;-1.70;99.90;;;;;;5113171;28;20039;-87
2023/03/03 06:21:44;;;;;;;5.47;2.63;;;-1.70;99.90;;;;;;5114210;28;20518;-89
2023/03/03 06:24:12;;;;;;;4.68;2.47;;;-1.50;99.90;;;;;;5096212;28;20400;-88
2023/03/03 06:26:41;;;;;;;4.43;2.03;;;-1.60;99.90;;;;;;5081183;27;20046;-88
2023/03/03 06:29:14;;;;;;;5.13;2.20;;;-2.00;99.90;;;;;;5109399;28;20058;-89
2023/03/03 06:31:50;;;;;;;4.20;2.13;;;-1.20;99.90;;;;;;5114043;28;20163;-88
2023/03/03 06:34:27;;;;;;;5.10;1.85;;;-2.50;99.90;;;;;;5096047;28;20043;-89
2023/03/03 06:36:56;;;;;;;4.22;1.88;;;-0.60;99.90;;;;;;5123938;27;20047;-89
2023/03/03 06:39:24;;;;;;;3.92;1.98;;;-0.10;99.90;;;;;;5116403;27;20043;-88
2023/03/03 06:41:53;;;;;;;2.88;1.75;;;-1.60;99.90;;;;;;5133756;27;20047;-90
2023/03/03 06:44:24;;;;;;;4.20;1.90;;;-1.50;99.90;;;;;;5114995;27;20054;-88
2023/03/03 06:46:58;;;;;;;5.75;1.80;;;-1.50;99.90;;;;;;5134604;27;20090;-89
2023/03/03 06:49:27;;;;;;;3.00;1.60;;;-1.40;99.90;;;;;;5115651;27;20460;-89
2023/03/03 06:52:10;;;;;;;3.47;1.98;;;-1.50;99.90;;;;;;5115802;27;20058;-89
2023/03/03 06:54:38;;;;;;;2.72;1.63;;;-1.50;99.90;;;;;;5115972;27;20051;-88
2023/03/03 06:57:26;;;;;;;5.10;2.33;;;-0.70;99.90;;;;;;5115385;27;20051;-91
2023/03/03 06:59:55;;;;;;;3.03;1.55;;;-1.40;99.90;;;;;;5112433;27;20046;-85
2023/03/03 07:02:21;;;;;;;3.70;1.88;;;-1.60;99.90;;;;;;5111924;28;20040;-90
2023/03/03 07:04:48;;;;;;;3.47;1.77;;;-1.20;99.90;;;;;;5113924;28;20047;-91
2023/03/03 07:07:23;;;;;;;2.63;1.27;;;-1.00;99.90;;;;;;5113763;28;20402;-89
2023/03/03 07:09:51;;;;;;;4.63;1.67;;;-0.10;99.90;;;;;;5113614;28;20050;-86
2023/03/03 07:12:21;;;;;;;4.47;2.17;;;0.30;99.90;;;;;;5113611;28;20036;-88
2023/03/03 07:14:54;;;;;;;3.35;1.70;;;-0.30;99.90;;;;;;5101635;27;20395;-87
2023/03/03 07:17:24;;;;;;;3.63;1.65;;;0.70;99.90;;;;;;5133435;27;20096;-89
2023/03/03 07:19:52;;;;;;;3.70;1.63;;;-0.40;99.90;;;;;;5098514;28;20395;-86
2023/03/03 07:22:30;;;;;;;3.70;2.00;;;-0.50;99.90;;;;;;5111584;28;20048;-88
2023/03/03 07:25:01;;;;;;;3.47;1.70;;;-0.60;99.90;;;;;;5111765;28;20043;-84
2023/03/03 07:27:30;;;;;;;3.88;1.70;;;-0.40;99.90;;;;;;5111877;28;20055;-86
2023/03/03 07:30:32;;;;;;;2.63;1.50;;;-0.30;99.90;;;;;;5113465;28;20126;-90
2023/03/03 07:33:17;;;;;;;5.45;2.28;;;0.30;99.90;;;;;;5014398;28;20065;-88
2023/03/03 07:35:43;;;;;;;2.78;1.40;;;-0.20;99.90;;;;;;4997907;28;20049;-88
2023/03/03 07:38:42;;;;;;;3.28;1.58;;;-0.20;99.90;;;;;;5012631;28;20442;-89
2023/03/03 07:41:16;;;;;;;5.15;2.47;;;-0.10;99.90;;;;;;5030511;28;20077;-85
2023/03/03 07:43:53;;;;;;;3.55;1.90;;;1.20;99.90;;;;;;5014397;28;20113;-88
2023/03/03 07:46:26;;;;;;;3.67;1.52;;;0.00;99.90;;;;;;5013950;28;20046;-88
2023/03/03 07:49:12;;;;;;;3.53;1.77;;;0.10;99.90;;;;;;5013258;28;20152;-88
2023/03/03 07:51:57;;;;;;;2.80;1.35;;;0.90;99.90;;;;;;5030619;28;20041;-87
2023/03/03 07:55:37;;;;;;;3.63;1.67;;;0.20;99.90;;;;;;4952440;29;20575;-87
2023/03/03 07:58:31;;;;;;;2.97;1.42;;;0.20;99.90;;;;;;4918660;29;20079;-86
2023/03/03 08:01:48;;;;;;;;;;;;;;;;;;;;;
2023/03/03 08:07:32;;;;;;;4.25;1.40;;;0.40;99.90;;;;;;4922040;28;20086;-87
2023/03/03 08:10:33;;;;;;;3.47;1.70;;;1.10;99.90;;;;;;4988439;28;20423;-87
2023/03/03 08:13:28;;;;;;;3.72;1.60;;;0.60;99.90;;;;;;4994279;28;20049;-89
2023/03/03 08:16:17;;;;;;;2.60;1.60;;;0.60;99.90;;;;;;4953882;28;20107;-88
2023/03/03 08:19:00;;;;;;;;;;;;;;;;;;;;;
2023/03/03 08:21:44;;;;;;;2.15;1.10;;;0.80;99.90;;;;;;4934098;28;20138;-87
2023/03/03 08:24:39;;;;;;;2.90;1.48;;;0.80;99.90;;;;;;4936308;29;20051;-88
2023/03/03 08:27:18;;;;;;;4.10;1.30;;;1.00;99.90;;;;;;4941818;28;20111;-87
2023/03/03 08:30:10;;;;;;;3.00;1.38;;;1.80;99.90;;;;;;4935956;29;20055;-87
2023/03/03 08:33:08;;;;;;;4.10;1.33;;;2.40;99.90;;;;;;4945439;29;20059;-87
2023/03/03 08:35:45;;;;;;;4.80;1.35;;;1.20;99.90;;;;;;4993559;28;20529;-88
2023/03/03 08:38:28;;;;;;;2.78;1.33;;;1.30;99.90;;;;;;5013665;28;20083;-87
2023/03/03 08:41:19;;;;;;;;;;;;;;;;;;;;;
2023/03/03 08:47:13;;;;;;;;;;;;;;;;;;;;;
2023/03/03 08:50:13;;;;;;;;;;;;;;;;;;;;;
2023/03/03 08:57:06;;;;;;;2.65;1.25;;;1.50;99.90;;;;;;5042118;28;20111;-87
2023/03/03 08:59:54;;;;;;;1.77;1.17;;;2.30;99.90;;;;;;5036848;28;20145;-87
2023/03/03 09:03:05;;;;;;;;;;;;;;;;;;;;;
2023/03/03 09:06:53;;;;;;;2.53;1.30;;;2.60;99.90;;;;;;5035797;28;20096;-87
2023/03/03 09:17:02;;;;;;;;;;;;;;;;;;;;;
2023/03/03 09:19:58;;;;;;;3.88;1.80;;;3.00;99.90;;;;;;5035448;28;20052;-87
2023/03/03 09:23:16;;;;;;;3.42;1.55;;;3.30;99.90;;;;;;5051581;28;20095;-88
2023/03/03 09:26:51;;;;;;;;;;;;;;;;;;;;;
2023/03/03 09:29:50;;;;;;;;;;;;;;;;;;;;;
2023/03/03 09:32:52;;;;;;;4.60;1.73;;;4.20;99.90;;;;;;5052438;28;20044;-88
2023/03/03 09:35:41;;;;;;;2.65;1.30;;;4.40;99.90;;;;;;5017756;28;20207;-88
2023/03/03 09:39:12;;;;;;;3.97;1.67;;;4.50;99.90;;;;;;5034663;28;20052;-88
2023/03/03 09:49:00;;;;;;;1.60;0.93;;;5.10;99.90;;;;;;4938156;29;20051;-88
2023/03/03 09:52:16;;;;;;;;;;;;;;;;;;;;;
2023/03/03 09:59:06;;;;;;;2.42;1.40;;;5.40;99.90;;;;;;4953855;28;20142;-88
2023/03/03 10:02:44;;;;;;;5.05;1.08;;;5.50;99.90;;;;;;4878227;29;20056;-87
2023/03/03 10:06:33;;;;;;;3.35;1.23;;;5.50;99.90;;;;;;4884867;29;20099;-88
2023/03/03 10:17:20;;;;;;;;;;;;;;;;;;;;;
2023/03/03 10:23:51;;;;;;;1.92;0.85;;;6.20;99.90;;;;;;4858358;29;20045;-90
2023/03/03 10:26:28;;;;;;;0.88;0.40;;;6.30;99.90;;;;;;4922913;29;20059;-89
2023/03/03 10:29:20;;;;;;;4.75;0.73;;;6.30;99.90;;;;;;4934266;29;20186;-86
2023/03/03 10:32:12;;;;;;;;;;;;;;;;;;;;;
2023/03/03 10:35:01;;;;;;;2.97;0.50;;;6.40;99.90;;;;;;4990380;28;20054;-86
2023/03/03 10:38:11;;;;;;;1.23;0.43;;;7.10;99.90;;;;;;4975715;28;20052;-88
2023/03/03 10:41:06;;;;;;;2.00;0.40;;;6.50;99.90;;;;;;5012559;28;20169;-88
2023/03/03 10:44:24;;;;;;;0.95;0.35;;;6.20;99.90;;;;;;5051360;28;20438;-87
2023/03/03 10:47:07;;;;;;;1.60;0.40;;;6.50;99.90;;;;;;5049440;28;20103;-86
2023/03/03 10:49:58;;;;;;;2.10;0.80;;;6.60;99.90;;;;;;5051138;28;20041;-88
2023/03/03 10:56:13;;;;;;;3.25;0.95;;;6.90;99.90;;;;;;5029842;28;20052;-87
2023/03/03 10:59:15;;;;;;;2.40;0.68;;;6.90;99.90;;;;;;5033300;28;20055;-87
2023/03/03 11:05:47;;;;;;;;;;;;;;;;;;;;;
2023/03/03 11:08:36;;;;;;;0.70;0.30;;;7.40;99.90;;;;;;4988100;28;20053;-87
2023/03/03 11:11:56;;;;;;;;;;;;;;;;;;;;;
2023/03/03 11:14:54;;;;;;;0.57;0.30;;;7.20;99.90;;;;;;4975141;28;20051;-86
2023/03/03 11:17:49;;;;;;;1.60;0.30;;;7.10;99.90;;;;;;4974040;28;20499;-85
2023/03/03 11:21:17;;;;;;;3.47;0.40;;;7.30;99.90;;;;;;4900712;29;20520;-89
2023/03/03 11:28:29;;;;;;;4.22;0.50;;;7.60;99.90;;;;;;4914762;29;20495;-90
2023/03/03 11:31:31;;;;;;;1.13;0.30;;;7.80;99.90;;;;;;4899485;29;20091;-86
2023/03/03 11:34:47;;;;;;;3.17;0.40;;;7.40;99.90;;;;;;4975030;28;20046;-87
2023/03/03 11:38:03;;;;;;;1.73;0.20;;;7.40;99.90;;;;;;4974810;28;20077;-87
2023/03/03 11:52:01;;;;;;;1.63;0.30;;;7.80;99.90;;;;;;4940858;28;20055;-88
2023/03/03 11:55:01;;;;;;;1.90;0.20;;;7.90;99.90;;;;;;4971680;28;20051;-87
2023/03/03 11:58:01;;;;;;;1.90;0.40;;;8.00;99.90;;;;;;4956532;28;20112;-87
2023/03/03 12:04:23;;;;;;;4.32;0.40;;;8.30;99.90;;;;;;4932603;29;20047;-88
2023/03/03 12:21:42;;;;;;;4.57;0.50;;;8.40;99.90;;;;;;4936836;29;20519;-89
2023/03/03 12:32:57;;;;;;;2.33;0.60;;;8.30;99.90;;;;;;4927678;29;20456;-89
2023/03/03 12:48:14;;;;;;;;;;;;;;;;;;;;;
2023/03/03 13:01:29;;;;;;;7.68;0.50;;;8.70;99.90;;;;;;4935693;29;20040;-86
2023/03/03 13:04:43;;;;;;;4.18;0.60;;;8.90;99.90;;;;;;4938715;29;20504;-87
2023/03/03 13:07:50;;;;;;;5.68;0.70;;;8.90;99.90;;;;;;4887153;29;20052;-89
2023/03/03 13:22:18;;;;;;;7.43;1.27;;;8.40;99.90;;;;;;4844967;29;20155;-88
2023/03/03 13:56:15;;;;;;;9.63;0.80;;;8.10;99.90;;;;;;5347611;22;20335646;-88
2023/03/03 13:59:07;;;;;;;12.82;1.77;;;8.00;99.90;;;;;;6020846;23;20064;-89
2023/03/03 14:01:41;;;;;;;8.63;1.13;;;8.10;99.90;;;;;;6021360;23;20023;-89
2023/03/03 14:05:31;;;;;;;;;;;;;;;;;;;;;
2023/03/03 15:08:09;;;;;;;;;;;7.60;99.90;;;;;;5003926;27;4515575;-85
2023/03/03 15:21:31;;;;;;;6.38;0.90;;;7.50;99.90;;;;;;5154313;22;20053;-87
2023/03/03 15:45:16;;;;;;;;;;;;;;;;;;;;;
2023/03/03 16:15:28;;;;;;;9.48;1.33;;;7.10;99.90;;;;;;6108936;23;20034;-88
2023/03/03 16:22:45;;;;;;;;;;;;;;;;;;;;;
2023/03/03 16:29:37;;;;;;;21.63;1.90;;;7.10;99.90;;;;;;5989104;24;20027;-91
2023/03/03 16:32:56;;;;;;;17.98;1.98;;;6.80;99.90;;;;;;5984647;24;20098;-92
2023/03/03 16:36:04;;;;;;;26.63;2.00;;;7.00;99.90;;;;;;5988536;24;20016;-93
2023/03/03 16:38:50;;;;;;;8.90;1.55;;;7.00;99.90;;;;;;5965416;24;20507;-91
2023/03/03 16:41:34;;;;;;;10.55;1.42;;;6.90;99.90;;;;;;5964642;24;20111;-91
2023/03/03 16:44:34;;;;;;;;;;;;;;;;;;;;;
2023/03/03 16:47:32;;;;;;;19.75;2.45;;;7.70;99.90;;;;;;5998295;23;20482;-93
2023/03/03 16:50:39;;;;;;;10.88;1.63;;;6.90;99.90;;;;;;6045587;23;20027;-92
2023/03/03 16:54:23;;;;;;;14.18;1.98;;;6.60;99.90;;;;;;6074092;23;20070;-92
2023/03/03 16:57:26;;;;;;;18.80;2.40;;;6.70;99.90;;;;;;6045438;23;20027;-90
2023/03/03 17:00:00;;;;;;;17.50;2.03;;;6.80;99.90;;;;;;6077038;23;20019;-87
2023/03/03 17:04:23;;;;;;;17.95;2.70;;;6.70;99.90;;;;;;6190483;23;20389;-90
2023/03/03 17:07:38;;;;;;;18.38;1.83;;;6.50;99.90;;;;;;6211272;23;20025;-91
2023/03/03 17:10:59;;;;;;;14.20;1.60;;;6.00;99.90;;;;;;6214453;23;20071;-89
2023/03/03 17:14:27;;;;;;;16.85;1.92;;;6.60;99.90;;;;;;6189641;23;20068;-90
2023/03/03 17:17:46;;;;;;;13.35;1.85;;;6.60;99.90;;;;;;6038987;23;20074;-90
2023/03/03 17:20:45;;;;;;;15.57;2.28;;;6.80;99.90;;;;;;6038421;23;20461;-90
2023/03/03 17:24:13;;;;;;;11.40;1.90;;;6.30;99.90;;;;;;6013485;23;20054;-92
2023/03/03 17:27:16;;;;;;;13.93;1.85;;;6.80;99.90;;;;;;5981082;24;20048;-90
2023/03/03 17:30:24;;;;;;;19.42;1.63;;;6.50;99.90;;;;;;5980777;23;20053;-87
2023/03/03 17:33:15;;;;;;;18.60;2.17;;;6.50;99.90;;;;;;5959989;24;20032;-90
2023/03/03 17:36:34;;;;;;;16.83;1.50;;;6.60;99.90;;;;;;6006449;23;20549;-89
2023/03/03 17:39:40;;;;;;;11.38;1.35;;;6.40;99.90;;;;;;6063911;23;20195;-91
2023/03/03 17:42:47;;;;;;;10.52;1.20;;;6.30;99.90;;;;;;6065041;23;20560;-88
2023/03/03 17:50:05;;;;;;;;;;;;;;;;;;;;;
2023/03/03 17:52:57;;;;;;;10.23;1.38;;;7.10;99.90;;;;;;6013070;23;20024;-89
2023/03/03 17:55:46;;;;;;;17.55;2.10;;;6.40;99.90;;;;;;6066234;23;20023;-90
2023/03/03 17:58:43;;;;;;;8.27;1.42;;;6.20;99.90;;;;;;6145297;23;20017;-89
2023/03/03 18:01:19;;;;;;;21.15;1.67;;;6.20;99.90;;;;;;6158995;23;20336;-93
2023/03/03 18:04:21;;;;;;;21.42;2.22;;;6.20;99.90;;;;;;6158492;23;20024;-86
2023/03/03 18:06:49;;;;;;;15.07;1.85;;;6.20;99.90;;;;;;6182954;23;20530;-86
2023/03/03 18:09:24;;;;;;;20.88;2.60;;;6.20;99.90;;;;;;6158164;23;20188;-86
2023/03/03 18:12:16;;;;;;;16.80;2.13;;;6.20;99.90;;;;;;6182766;23;20472;-86
2023/03/03 18:15:20;;;;;;;10.98;1.58;;;6.40;99.90;;;;;;6183093;23;20359;-90
2023/03/03 18:17:52;;;;;;;13.75;1.58;;;6.30;99.90;;;;;;6157588;23;20017;-86
2023/03/03 18:20:33;;;;;;;11.77;1.60;;;6.00;99.90;;;;;;6176886;23;20379;-86
2023/03/03 18:23:26;;;;;;;12.63;1.70;;;6.30;99.90;;;;;;6213102;23;20025;-86
2023/03/03 18:26:25;;;;;;;11.45;1.52;;;6.30;99.90;;;;;;6270306;22;20077;-86
2023/03/03 18:29:09;;;;;;;15.18;2.60;;;6.20;99.90;;;;;;6306213;22;20331;-87
2023/03/03 18:32:04;;;;;;;14.88;2.25;;;6.20;99.90;;;;;;6278830;22;20061;-87
2023/03/03 18:34:40;;;;;;;13.20;1.60;;;6.20;99.90;;;;;;6281691;22;20015;-87
2023/03/03 18:37:33;;;;;;;13.30;1.75;;;6.20;99.90;;;;;;6306171;22;20015;-87
2023/03/03 18:40:07;;;;;;;16.50;2.58;;;6.10;99.90;;;;;;6305267;22;20035;-86
2023/03/03 18:42:38;;;;;;;14.20;2.35;;;6.20;99.90;;;;;;6304248;22;20437;-85
2023/03/03 18:45:30;;;;;;;12.80;2.45;;;6.30;99.90;;;;;;6306051;22;20020;-85
2023/03/03 18:48:12;;;;;;;7.60;1.92;;;6.10;99.90;;;;;;6305265;22;20413;-86
2023/03/03 18:50:51;;;;;;;13.27;1.65;;;6.20;99.90;;;;;;6307701;22;20012;-86
2023/03/03 18:54:06;;;;;;;13.52;1.40;;;6.70;99.90;;;;;;6305117;22;20019;-86
2023/03/03 18:56:57;;;;;;;16.27;1.70;;;6.20;99.90;;;;;;6307603;22;20023;-85
2023/03/03 18:59:34;;;;;;;11.02;1.17;;;6.20;99.90;;;;;;6307126;22;20026;-86
2023/03/03 19:02:21;;;;;;;9.90;1.52;;;5.70;99.90;;;;;;6305229;22;20023;-85
2023/03/03 19:04:55;;;;;;;7.95;1.10;;;6.10;99.90;;;;;;6307386;22;20015;-85
2023/03/03 19:07:31;;;;;;;10.27;1.63;;;6.10;99.90;;;;;;6305724;22;20450;-85
2023/03/03 19:10:18;;;;;;;;;;;6.10;99.90;;;;;;6306039;22;20015;-86
2023/03/03 19:13:01;;;;;;;8.30;1.52;;;5.80;99.90;;;;;;6305372;22;20333;-86
2023/03/03 19:15:30;;;;;;;19.08;1.30;;;6.00;99.90;;;;;;6306660;22;20027;-86
2023/03/03 19:18:17;;;;;;;10.48;1.00;;;6.10;99.90;;;;;;6306325;22;20022;-88
2023/03/03 19:20:52;;;;;;;12.52;1.35;;;6.00;99.90;;;;;;6305628;22;20027;-85
2023/03/03 19:23:21;;;;;;;10.63;1.50;;;6.50;99.90;;;;;;6279974;22;20019;-85
2023/03/03 19:26:25;;;;;;;4.43;0.88;;;6.30;99.90;;;;;;6305281;22;20011;-85
2023/03/03 19:29:25;;;;;;;7.22;1.25;;;6.00;99.90;;;;;;6305382;22;20027;-86
2023/03/03 19:32:28;;;;;;;10.23;1.63;;;6.00;99.90;;;;;;6306902;22;20015;-85
2023/03/03 19:35:00;;;;;;;5.03;0.95;;;6.00;99.90;;;;;;6305492;22;20066;-84
2023/03/03 19:37:50;;;;;;;9.32;1.45;;;6.00;99.90;;;;;;6307115;22;20022;-84
2023/03/03 19:40:44;;;;;;;8.27;1.00;;;5.50;99.90;;;;;;6307101;22;20023;-85
2023/03/03 19:43:29;;;;;;;6.20;0.90;;;6.10;99.90;;;;;;6305434;22;20519;-85
2023/03/03 19:46:07;;;;;;;12.00;1.50;;;6.00;99.90;;;;;;6305494;22;20098;-85
2023/03/03 19:48:47;;;;;;;12.35;1.10;;;6.00;99.90;;;;;;6306116;22;20011;-88
2023/03/03 19:51:25;;;;;;;12.10;1.40;;;6.00;99.90;;;;;;6306761;22;20043;-85
2023/03/03 19:54:06;;;;;;;9.02;1.27;;;6.00;99.90;;;;;;6306761;22;20015;-86
2023/03/03 19:56:53;;;;;;;7.70;1.23;;;6.00;99.90;;;;;;6306212;22;20019;-88
2023/03/03 19:59:59;;;;;;;9.93;1.20;;;6.00;99.90;;;;;;6307544;22;20019;-89
2023/03/03 20:03:04;;;;;;;12.90;1.40;;;6.00;99.90;;;;;;6279950;22;20077;-90
2023/03/03 20:05:53;;;;;;;;;;;;;;;;;;;;;
2023/03/03 20:08:42;;;;;;;11.00;1.80;;;5.90;99.90;;;;;;6300572;22;20405;-87
2023/03/03 20:11:57;;;;;;;8.20;1.35;;;6.00;99.90;;;;;;6304513;22;20072;-89